Shady Lake, New Jersey
Current Conditions -  °F | °C
As of 2:53 AM on Monday 26 Jan 2015 (Local Time) from KFWN Reporting Station
Overcast Overcast  
Wind Chill:   Ceiling: 7000
Heat Index: 20°   Visibility: 10mi
Dew Point:   Wind: 9mph
Humidity: 46%   Direction: 50°NE
Pressure: 30"   Gusts: NA
Location:  41.0879°N, 74.3771°W
Report Text: KFWN 260753Z AUTO 05008KT 10SM OVC070 M07/M17 A3000 RMK AO2 SLP165 T10671167
Loading
Personal Weather Stations






























Interactive Weather Map New forecast layout! Learn more

10-Day Weather Forecast

Advertisements
Track Severe Weather on mobile